Time;durP1;ratioP1;P1;durP2;ratioP2;P2;SDS_P1;SDS_P2;PMS_P1;PMS_P2;Temp;Humidity;BMP_temperature;BMP_pressure;BME280_temperature;BME280_humidity;BME280_pressure;Samples;Min_cycle;Max_cycle;Signal;HPM_P1;HPM_P2
2022/10/25 00:01:42;;;;;;;4.85;1.55;;;;;;;12.41;82.29;98451.66;7383708;19;20047;-75
2022/10/25 00:04:09;;;;;;;3.05;1.33;;;;;;;12.48;83.09;98456.13;7384446;19;20006;-76
2022/10/25 00:06:36;;;;;;;2.60;1.40;;;;;;;12.50;82.82;98461.25;7381359;19;20052;-76
2022/10/25 00:09:03;;;;;;;3.88;1.67;;;;;;;12.54;83.04;98453.81;7382780;19;20320;-76
2022/10/25 00:11:30;;;;;;;4.25;1.83;;;;;;;12.64;82.76;98446.50;7386387;19;20035;-76
2022/10/25 00:14:00;;;;;;;4.38;1.35;;;;;;;12.52;82.64;98446.81;7385883;19;20026;-76
2022/10/25 00:16:30;;;;;;;4.93;1.55;;;;;;;12.40;82.72;98442.88;7386640;19;20022;-76
2022/10/25 00:18:57;;;;;;;3.05;1.35;;;;;;;12.37;83.04;98445.81;7385111;19;20019;-76
2022/10/25 00:21:24;;;;;;;5.22;1.85;;;;;;;12.50;83.11;98453.28;7386350;19;20034;-76
2022/10/25 00:23:51;;;;;;;3.53;1.48;;;;;;;12.40;82.80;98453.47;7383970;19;20080;-76
2022/10/25 00:26:18;;;;;;;3.67;1.52;;;;;;;12.37;82.80;98453.78;7387086;19;20011;-76
2022/10/25 00:28:46;;;;;;;1.52;1.23;;;;;;;12.31;82.59;98446.50;7384641;19;20086;-76
2022/10/25 00:31:14;;;;;;;4.38;1.60;;;;;;;12.34;82.53;98451.47;7386728;19;20014;-76
2022/10/25 00:33:42;;;;;;;4.13;1.50;;;;;;;12.27;82.65;98453.16;7380001;19;20026;-75
2022/10/25 00:36:17;;;;;;;5.25;1.85;;;;;;;12.29;82.89;98459.91;7381044;19;20031;-75
2022/10/25 00:38:45;;;;;;;2.92;1.63;;;;;;;12.41;83.00;98449.00;7383100;19;20027;-76
2022/10/25 00:41:13;;;;;;;5.38;1.73;;;;;;;12.38;82.69;98450.16;7385646;19;20083;-76
2022/10/25 00:43:40;;;;;;;4.88;1.60;;;;;;;12.29;82.64;98451.94;7384925;19;20014;-76
2022/10/25 00:46:22;;;;;;;7.32;1.85;;;;;;;12.40;82.72;98453.47;7387675;19;20022;-76
2022/10/25 00:49:03;;;;;;;4.45;1.80;;;;;;;12.30;82.42;98450.97;7382235;19;20015;-76
2022/10/25 00:51:34;;;;;;;8.13;2.10;;;;;;;12.22;82.61;98453.63;7379038;19;20420;-76
2022/10/25 00:54:01;;;;;;;4.93;1.80;;;;;;;12.18;82.54;98468.19;7384979;19;20010;-76
2022/10/25 00:56:31;;;;;;;5.10;1.58;;;;;;;12.07;82.81;98458.72;7385231;19;20011;-75
2022/10/25 00:59:01;;;;;;;4.28;1.70;;;;;;;12.08;82.72;98448.94;7382787;19;20015;-76
2022/10/25 01:01:28;;;;;;;3.38;1.63;;;;;;;12.04;82.80;98451.13;7384339;19;20015;-76
2022/10/25 01:03:57;;;;;;;3.70;1.58;;;;;;;12.16;83.20;98451.63;7386857;19;20018;-75
2022/10/25 01:06:28;;;;;;;6.72;1.50;;;;;;;12.22;83.33;98456.28;7384259;19;20010;-76
2022/10/25 01:08:56;;;;;;;4.68;1.55;;;;;;;12.25;83.34;98452.47;7378187;19;20395;-76
2022/10/25 01:11:23;;;;;;;9.20;2.25;;;;;;;12.31;83.20;98454.47;7383429;19;20018;-75
2022/10/25 01:13:50;;;;;;;3.70;1.40;;;;;;;12.36;83.26;98453.97;7385581;19;20022;-75
2022/10/25 01:16:50;;;;;;;3.97;1.50;;;;;;;12.29;82.81;98459.91;7382213;19;20104;-76
2022/10/25 01:19:43;;;;;;;3.25;1.73;;;;;;;12.20;83.23;98458.25;7384325;19;20031;-76
2022/10/25 01:22:20;;;;;;;4.18;1.70;;;;;;;12.21;83.06;98454.59;7381957;19;20022;-76
2022/10/25 01:24:59;;;;;;;1.77;1.45;;;;;;;12.20;82.90;98452.97;7384816;19;20387;-75
2022/10/25 01:27:35;;;;;;;3.00;1.38;;;;;;;12.16;82.87;98458.75;7382649;19;20044;-75
2022/10/25 01:30:01;;;;;;;3.47;1.50;;;;;;;12.05;82.52;98444.81;7378928;19;20022;-76
2022/10/25 01:32:31;;;;;;;1.48;1.23;;;;;;;11.99;82.56;98445.47;7383204;19;20021;-75
2022/10/25 01:35:13;;;;;;;4.15;1.67;;;;;;;11.99;82.83;98444.63;7384457;19;20441;-75
2022/10/25 01:37:58;;;;;;;6.65;2.10;;;;;;;11.95;82.57;98438.81;7379250;19;20019;-75
2022/10/25 01:40:35;;;;;;;3.78;1.90;;;;;;;11.93;82.80;98447.91;7381477;19;20485;-76
2022/10/25 01:43:32;;;;;;;2.97;1.90;;;;;;;12.01;82.88;98434.72;7381691;19;20023;-75
2022/10/25 01:46:20;;;;;;;3.15;1.60;;;;;;;11.94;82.73;98439.00;7381053;19;20526;-75
2022/10/25 01:48:49;;;;;;;5.20;2.25;;;;;;;12.01;82.73;98440.84;7380574;19;20014;-75
2022/10/25 01:51:17;;;;;;;4.03;2.03;;;;;;;11.98;82.78;98440.31;7382245;19;20141;-76
2022/10/25 01:53:48;;;;;;;5.78;2.42;;;;;;;11.95;82.57;98443.28;7383937;19;20015;-76
2022/10/25 01:56:37;;;;;;;5.77;2.50;;;;;;;11.97;82.92;98454.56;7390210;19;20019;-76
2022/10/25 01:59:14;;;;;;;3.95;1.95;;;;;;;11.92;82.77;98459.53;7388126;19;20010;-76
2022/10/25 02:02:00;;;;;;;3.30;1.95;;;;;;;11.86;82.64;98461.84;7387164;19;20173;-75
2022/10/25 02:04:32;;;;;;;3.03;1.63;;;;;;;11.81;82.63;98460.63;7391622;19;20042;-75
2022/10/25 02:07:34;;;;;;;7.85;2.20;;;;;;;11.81;82.58;98463.28;7365174;19;20406;-75
2022/10/25 02:10:16;;;;;;;3.75;2.03;;;;;;;11.75;82.68;98454.16;7379809;19;20018;-75
2022/10/25 02:12:51;;;;;;;7.38;2.25;;;;;;;11.72;82.86;98451.84;7388167;19;20014;-74
2022/10/25 02:15:24;;;;;;;5.13;2.05;;;;;;;11.69;82.90;98449.50;7389726;19;20018;-75
2022/10/25 02:17:59;;;;;;;3.20;2.20;;;;;;;11.71;82.86;98457.28;7381189;19;20019;-74
2022/10/25 02:20:29;;;;;;;5.22;2.05;;;;;;;11.72;82.92;98458.97;7391238;19;20018;-75
2022/10/25 02:22:56;;;;;;;2.95;1.80;;;;;;;11.73;82.87;98453.47;7391030;19;20018;-75
2022/10/25 02:25:23;;;;;;;4.93;1.98;;;;;;;11.73;83.26;98453.47;7390078;19;20010;-74
2022/10/25 02:27:51;;;;;;;4.10;2.08;;;;;;;11.77;83.39;98459.28;7386497;19;20023;-75
2022/10/25 02:30:18;;;;;;;5.13;2.25;;;;;;;11.83;83.75;98450.69;7387335;19;20476;-75
2022/10/25 02:32:45;;;;;;;5.47;2.10;;;;;;;11.85;83.86;98451.38;7386400;19;20018;-74
2022/10/25 02:35:14;;;;;;;3.28;1.90;;;;;;;12.00;83.51;98452.41;7383615;19;20102;-74
2022/10/25 02:37:41;;;;;;;6.93;2.13;;;;;;;12.21;83.05;98454.59;7382646;19;20033;-73
2022/10/25 02:40:08;;;;;;;4.82;2.10;;;;;;;12.24;82.82;98454.31;7388486;19;20018;-74
2022/10/25 02:42:35;;;;;;;7.63;1.83;;;;;;;12.26;82.77;98446.97;7385991;19;20478;-74
2022/10/25 02:45:02;;;;;;;4.90;2.47;;;;;;;12.29;82.60;98445.81;7391227;19;20463;-75
2022/10/25 02:47:29;;;;;;;6.22;1.90;;;;;;;12.14;82.88;98442.16;7388181;19;20023;-74
2022/10/25 02:49:56;;;;;;;8.70;2.33;;;;;;;12.11;83.05;98445.97;7385442;19;20473;-74
2022/10/25 02:52:22;;;;;;;7.80;2.42;;;;;;;12.13;83.08;98449.28;7387191;19;20018;-75
2022/10/25 02:54:49;;;;;;;5.25;2.35;;;;;;;12.07;82.63;98442.81;7387882;19;20465;-74
2022/10/25 02:57:16;;;;;;;6.93;2.08;;;;;;;11.96;82.68;98437.00;7386808;19;20018;-74
2022/10/25 02:59:42;;;;;;;2.70;2.15;;;;;;;11.89;82.82;98431.53;7387822;19;20518;-75
2022/10/25 03:02:09;;;;;;;6.88;2.20;;;;;;;11.88;82.70;98442.31;7389487;19;20014;-74
2022/10/25 03:04:36;;;;;;;6.97;2.13;;;;;;;11.80;82.76;98435.94;7386545;19;20515;-74
2022/10/25 03:07:03;;;;;;;6.40;2.33;;;;;;;11.76;83.12;98434.59;7385384;19;20089;-74
2022/10/25 03:09:29;;;;;;;5.90;2.03;;;;;;;11.74;83.09;98439.25;7385449;19;20014;-74
2022/10/25 03:11:56;;;;;;;3.63;2.38;;;;;;;11.73;83.02;98434.94;7389352;19;20043;-75
2022/10/25 03:14:23;;;;;;;5.03;2.22;;;;;;;11.78;83.46;98431.81;7387981;19;20011;-74
2022/10/25 03:16:50;;;;;;;7.30;2.47;;;;;;;11.79;83.55;98436.94;7377539;19;20018;-75
2022/10/25 03:19:16;;;;;;;8.10;2.00;;;;;;;11.77;83.12;98435.44;7384795;19;20015;-74
2022/10/25 03:21:43;;;;;;;2.65;2.33;;;;;;;11.74;83.10;98439.25;7387699;19;20030;-75
2022/10/25 03:24:10;;;;;;;2.38;2.17;;;;;;;11.73;83.01;98444.72;7386283;19;20018;-76
2022/10/25 03:26:36;;;;;;;6.72;2.47;;;;;;;11.70;83.08;98439.75;7383803;19;20707;-75
2022/10/25 03:29:03;;;;;;;5.80;2.60;;;;;;;11.71;83.11;98442.22;7387007;19;20428;-75
2022/10/25 03:31:30;;;;;;;6.43;3.45;;;;;;;11.73;83.26;98455.31;7389197;19;20540;-76
2022/10/25 03:33:56;;;;;;;3.92;2.22;;;;;;;11.80;83.17;98451.03;7389849;19;20035;-75
2022/10/25 03:36:23;;;;;;;7.43;2.92;;;;;;;11.70;83.29;98443.22;7386283;19;20026;-75
2022/10/25 03:38:49;;;;;;;5.78;2.60;;;;;;;11.70;83.75;98451.16;7387123;19;20010;-75
2022/10/25 03:41:16;;;;;;;6.28;2.65;;;;;;;11.77;83.28;98446.03;7381862;19;20036;-76
2022/10/25 03:43:43;;;;;;;5.20;2.47;;;;;;;11.71;83.61;98452.00;7386941;19;20363;-75
2022/10/25 03:46:09;;;;;;;7.32;3.38;;;;;;;11.74;83.21;98454.31;7386800;19;20026;-75
2022/10/25 03:48:36;;;;;;;6.20;2.45;;;;;;;11.69;82.90;98457.47;7386205;19;20018;-75
2022/10/25 03:51:03;;;;;;;4.97;2.85;;;;;;;11.60;82.69;98455.75;7384174;19;20489;-75
2022/10/25 03:53:30;;;;;;;5.25;2.83;;;;;;;11.56;82.71;98457.91;7388500;19;20035;-75
2022/10/25 03:55:56;;;;;;;7.28;2.70;;;;;;;11.53;82.85;98460.03;7386060;19;20043;-75
2022/10/25 03:58:23;;;;;;;8.02;2.85;;;;;;;11.53;82.73;98467.97;7384572;19;20018;-75
2022/10/25 04:00:50;;;;;;;8.35;3.17;;;;;;;11.48;82.73;98459.69;7378157;19;20018;-76
2022/10/25 04:03:16;;;;;;;4.03;2.60;;;;;;;11.49;82.84;98461.34;7386517;19;20044;-74
2022/10/25 04:05:43;;;;;;;6.20;3.25;;;;;;;11.48;83.08;98462.31;7383195;19;20037;-75
2022/10/25 04:08:10;;;;;;;4.57;2.78;;;;;;;11.50;83.11;98460.34;7383672;19;20723;-75
2022/10/25 04:10:36;;;;;;;2.88;2.58;;;;;;;11.52;82.94;98468.97;7384404;19;20035;-75
2022/10/25 04:13:03;;;;;;;8.00;2.70;;;;;;;11.51;83.12;98473.44;7381444;19;20027;-75
2022/10/25 04:15:30;;;;;;;4.85;3.05;;;;;;;11.54;82.92;98472.31;7379561;19;20018;-75
2022/10/25 04:17:56;;;;;;;10.68;2.90;;;;;;;11.46;82.98;98459.84;7379263;19;20039;-75
2022/10/25 04:20:23;;;;;;;10.35;3.25;;;;;;;11.52;83.03;98459.22;7385014;19;20027;-75
2022/10/25 04:22:54;;;;;;;5.10;3.00;;;;;;;11.49;82.83;98464.00;7390903;19;20014;-75
2022/10/25 04:25:25;;;;;;;6.22;3.42;;;;;;;11.47;82.97;98465.97;7389865;19;20018;-75
2022/10/25 04:27:52;;;;;;;6.65;2.83;;;;;;;11.50;82.85;98457.72;7380893;19;20713;-75
2022/10/25 04:30:19;;;;;;;6.53;3.17;;;;;;;11.46;83.05;98459.84;7381110;19;20015;-75
2022/10/25 04:32:45;;;;;;;5.15;3.25;;;;;;;11.43;82.77;98454.88;7384929;19;20038;-75
2022/10/25 04:35:13;;;;;;;7.55;3.15;;;;;;;11.40;83.20;98458.69;7385979;19;20035;-75
2022/10/25 04:37:39;;;;;;;6.68;3.60;;;;;;;11.46;83.19;98459.03;7383351;19;20014;-75
2022/10/25 04:40:07;;;;;;;6.93;3.50;;;;;;;11.47;82.97;98464.16;7385098;19;20521;-76
2022/10/25 04:42:34;;;;;;;6.70;3.25;;;;;;;11.44;82.98;98464.47;7383519;19;20022;-76
2022/10/25 04:45:01;;;;;;;6.00;3.20;;;;;;;11.45;82.98;98470.59;7379280;19;20015;-75
2022/10/25 04:47:31;;;;;;;5.45;3.30;;;;;;;11.48;83.03;98468.47;7379538;19;20038;-76
2022/10/25 04:49:58;;;;;;;6.45;3.10;;;;;;;11.46;82.88;98465.16;7381546;19;20011;-75
2022/10/25 04:52:24;;;;;;;10.23;3.65;;;;;;;11.43;82.89;98476.06;7384538;19;20993;-75
2022/10/25 04:54:51;;;;;;;9.95;3.35;;;;;;;11.45;83.17;98467.94;7384652;19;20084;-75
2022/10/25 04:57:18;;;;;;;10.43;3.53;;;;;;;11.53;83.13;98473.28;7384587;19;20016;-75
2022/10/25 04:59:44;;;;;;;12.68;3.60;;;;;;;11.49;82.71;98467.47;7384332;19;20023;-75
2022/10/25 05:02:11;;;;;;;7.72;3.60;;;;;;;11.41;82.64;98472.75;7379945;19;20049;-75
2022/10/25 05:04:38;;;;;;;7.82;3.05;;;;;;;11.41;82.84;98478.03;7380813;19;20014;-75
2022/10/25 05:07:04;;;;;;;6.57;3.58;;;;;;;11.41;82.81;98480.69;7384227;19;20014;-75
2022/10/25 05:09:31;;;;;;;6.95;3.30;;;;;;;11.41;82.75;98488.63;7384998;19;20017;-75
2022/10/25 05:11:58;;;;;;;4.80;3.45;;;;;;;11.40;82.93;98482.53;7386304;19;20023;-75
2022/10/25 05:14:24;;;;;;;6.07;3.30;;;;;;;11.38;82.82;98488.97;7381868;19;20022;-74
2022/10/25 05:16:51;;;;;;;4.65;3.78;;;;;;;11.38;82.96;98481.00;7378003;19;20532;-75
2022/10/25 05:19:18;;;;;;;8.25;3.30;;;;;;;11.36;82.97;98483.81;7376304;19;20019;-75
2022/10/25 05:21:46;;;;;;;4.70;3.33;;;;;;;11.34;83.00;98485.78;7384199;19;20052;-75
2022/10/25 05:24:13;;;;;;;5.93;3.63;;;;;;;11.35;83.19;98484.81;7383556;19;20013;-75
2022/10/25 05:26:39;;;;;;;6.93;3.15;;;;;;;11.35;83.06;98484.81;7384882;19;20018;-75
2022/10/25 05:29:10;;;;;;;7.30;3.55;;;;;;;11.36;83.04;98485.63;7382777;19;20014;-74
2022/10/25 05:31:39;;;;;;;3.92;3.20;;;;;;;11.35;82.98;98492.75;7394291;19;20031;-75
2022/10/25 05:34:06;;;;;;;5.63;3.60;;;;;;;11.33;83.17;98486.78;7390015;19;20763;-74
2022/10/25 05:36:33;;;;;;;5.07;3.38;;;;;;;11.37;83.11;98481.97;7391336;19;20342;-75
2022/10/25 05:39:00;;;;;;;7.50;3.45;;;;;;;11.37;83.05;98487.28;7386767;19;20014;-75
2022/10/25 05:41:27;;;;;;;9.45;4.00;;;;;;;11.39;82.85;98485.31;7390317;19;20046;-75
2022/10/25 05:43:58;;;;;;;5.85;3.47;;;;;;;11.34;82.90;98490.25;7390619;19;20484;-75
2022/10/25 05:46:25;;;;;;;9.68;4.07;;;;;;;11.30;82.85;98491.56;7390309;19;20461;-75
2022/10/25 05:48:52;;;;;;;10.35;5.00;;;;;;;11.28;82.87;98491.72;7388144;19;20014;-75
2022/10/25 05:51:30;;;;;;;8.90;5.03;;;;;;;11.27;83.04;98498.00;7389035;19;20052;-75
2022/10/25 05:54:06;;;;;;;;;;;;;;;11.27;83.04;98503.31;7391291;19;20393;-75
2022/10/25 05:56:33;;;;;;;5.25;3.60;;;;;;;11.24;83.04;98500.13;7388600;19;20350;-75
2022/10/25 05:59:09;;;;;;;8.30;3.67;;;;;;;11.20;83.09;98503.09;7390586;19;20014;-75
2022/10/25 06:01:43;;;;;;;8.25;3.60;;;;;;;11.21;83.22;98510.03;7390093;19;20019;-75
2022/10/25 06:04:10;;;;;;;6.20;3.58;;;;;;;11.23;83.34;98520.47;7390753;19;20062;-75
2022/10/25 06:06:38;;;;;;;10.73;4.40;;;;;;;11.30;83.27;98518.88;7386098;19;20014;-75
2022/10/25 06:09:05;;;;;;;10.50;4.05;;;;;;;11.42;83.13;98522.06;7387956;19;20060;-75
2022/10/25 06:11:32;;;;;;;8.45;4.13;;;;;;;11.51;82.91;98525.63;7386965;19;20014;-75
2022/10/25 06:13:59;;;;;;;7.60;4.20;;;;;;;11.52;82.75;98530.75;7391606;19;20527;-75
2022/10/25 06:16:26;;;;;;;11.25;4.30;;;;;;;11.63;82.59;98526.97;7390990;19;20033;-74
2022/10/25 06:18:53;;;;;;;7.32;4.00;;;;;;;11.59;82.42;98528.31;7391541;19;20031;-75
2022/10/25 06:21:22;;;;;;;12.55;4.13;;;;;;;11.52;82.72;98528.09;7391698;19;20371;-75
2022/10/25 06:23:49;;;;;;;7.53;4.28;;;;;;;11.48;83.04;98531.22;7388995;19;20015;-75
2022/10/25 06:26:18;;;;;;;11.43;3.58;;;;;;;11.51;83.06;98536.22;7389221;19;20018;-75
2022/10/25 06:28:46;;;;;;;8.07;4.00;;;;;;;11.57;82.88;98536.41;7388441;19;20031;-75
2022/10/25 06:31:15;;;;;;;10.45;4.50;;;;;;;11.56;83.37;98542.69;7387816;19;20016;-75
2022/10/25 06:33:42;;;;;;;8.15;4.45;;;;;;;11.66;83.39;98553.16;7391270;19;20472;-75
2022/10/25 06:36:13;;;;;;;9.52;4.60;;;;;;;11.75;83.44;98560.19;7386091;19;20526;-75
2022/10/25 06:38:40;;;;;;;13.32;7.25;;;;;;;11.81;83.35;98561.34;7390602;19;20014;-75
2022/10/25 06:41:10;;;;;;;15.98;8.77;;;;;;;11.83;83.45;98564.69;7392033;19;20018;-75
2022/10/25 06:43:37;;;;;;;14.63;8.10;;;;;;;11.88;83.50;98573.03;7388357;19;20052;-75
2022/10/25 06:46:31;;;;;;;7.80;4.80;;;;;;;12.10;83.27;98574.25;7389474;19;20022;-75
2022/10/25 06:48:59;;;;;;;12.52;5.13;;;;;;;12.16;83.36;98570.97;7391183;19;20014;-75
2022/10/25 06:51:27;;;;;;;9.95;4.32;;;;;;;12.24;83.33;98581.63;7390041;19;20135;-75
2022/10/25 06:53:55;;;;;;;9.40;4.10;;;;;;;12.33;83.17;98581.66;7387995;19;20018;-74
2022/10/25 06:56:23;;;;;;;11.07;3.72;;;;;;;12.45;83.37;98583.84;7389516;19;20500;-75
2022/10/25 06:58:50;;;;;;;8.00;3.40;;;;;;;12.48;83.45;98577.34;7386088;19;20018;-75
2022/10/25 07:01:18;;;;;;;5.63;3.28;;;;;;;12.58;83.45;98593.94;7385735;19;20044;-75
2022/10/25 07:03:45;;;;;;;14.25;3.60;;;;;;;12.64;83.55;98592.50;7389425;19;20027;-75
2022/10/25 07:06:17;;;;;;;7.65;2.83;;;;;;;12.84;83.14;98600.97;7385662;19;21326;-75
2022/10/25 07:08:45;;;;;;;10.93;3.22;;;;;;;12.98;83.03;98602.97;7390355;19;20025;-75
2022/10/25 07:11:17;;;;;;;7.47;3.15;;;;;;;13.05;83.41;98588.03;7388628;19;20010;-74
2022/10/25 07:13:44;;;;;;;10.38;3.78;;;;;;;13.23;83.08;98590.50;7388236;19;20013;-74
2022/10/25 07:16:13;;;;;;;5.63;2.97;;;;;;;13.38;83.07;98593.38;7386257;19;20143;-74
2022/10/25 07:18:40;;;;;;;8.88;3.28;;;;;;;13.48;82.47;98596.69;7388337;19;20050;-75
2022/10/25 07:21:10;;;;;;;10.23;3.30;;;;;;;13.55;82.55;98596.81;7386508;19;20011;-74
2022/10/25 07:23:41;;;;;;;5.50;2.88;;;;;;;13.61;83.01;98590.81;7388852;19;20057;-74
2022/10/25 07:26:13;;;;;;;10.68;3.67;;;;;;;13.84;82.41;98597.06;7391675;19;20018;-74
2022/10/25 07:28:41;;;;;;;;;;;;;;;13.89;82.36;98599.22;7389532;19;20023;-74
2022/10/25 07:31:11;;;;;;;3.47;2.70;;;;;;;13.89;82.23;98601.88;7385010;19;19951;-74
2022/10/25 07:33:38;;;;;;;7.15;3.42;;;;;;;13.97;82.37;98601.84;7386838;19;20006;-74
2022/10/25 07:36:05;;;;;;;6.28;3.00;;;;;;;14.05;82.39;98593.84;7386480;19;20469;-74
2022/10/25 07:38:37;;;;;;;9.13;2.83;;;;;;;14.11;81.82;98602.13;7387529;19;20015;-74
2022/10/25 07:41:04;;;;;;;6.68;2.40;;;;;;;14.14;81.78;98596.44;7390538;19;20604;-74
2022/10/25 07:43:31;;;;;;;8.57;2.30;;;;;;;14.15;81.68;98606.94;7390742;19;20022;-74
2022/10/25 07:45:57;;;;;;;5.35;1.95;;;;;;;14.14;81.92;98607.09;7390114;19;20015;-74
2022/10/25 07:48:24;;;;;;;6.60;2.13;;;;;;;14.16;81.51;98610.41;7389168;19;20578;-74
2022/10/25 07:50:51;;;;;;;3.45;2.08;;;;;;;14.11;81.81;98607.44;7385763;19;20068;-74
2022/10/25 07:53:18;;;;;;;6.07;2.15;;;;;;;14.17;81.79;98612.91;7384384;19;20367;-74
2022/10/25 07:55:53;;;;;;;7.88;2.30;;;;;;;14.20;81.08;98614.41;7390367;19;20019;-74
2022/10/25 07:58:20;;;;;;;5.40;2.15;;;;;;;14.14;80.78;98615.94;7387754;19;20015;-74
2022/10/25 08:00:47;;;;;;;6.72;2.55;;;;;;;14.20;81.35;98617.06;7388856;19;20027;-74
2022/10/25 08:03:15;;;;;;;5.72;1.73;;;;;;;14.25;81.28;98609.41;7385061;19;20490;-74
2022/10/25 08:05:46;;;;;;;4.63;2.22;;;;;;;14.35;81.34;98615.34;7387123;19;20038;-74
2022/10/25 08:08:13;;;;;;;4.63;1.77;;;;;;;14.41;81.33;98609.31;7385504;19;20018;-75
2022/10/25 08:10:43;;;;;;;4.50;2.10;;;;;;;14.42;80.92;98613.63;7386078;19;20018;-74
2022/10/25 08:13:10;;;;;;;7.15;1.90;;;;;;;14.44;81.34;98608.97;7387238;19;20542;-75
2022/10/25 08:15:37;;;;;;;7.70;2.22;;;;;;;14.53;81.30;98606.28;7388382;19;20035;-74
2022/10/25 08:18:04;;;;;;;8.52;2.38;;;;;;;14.50;80.94;98605.59;7384653;19;20403;-74
2022/10/25 08:20:31;;;;;;;7.18;2.63;;;;;;;14.57;81.07;98604.94;7386192;19;20010;-74
2022/10/25 08:23:17;;;;;;;5.43;2.17;;;;;;;14.66;80.79;98611.84;7387096;19;20018;-75
2022/10/25 08:25:44;;;;;;;4.85;1.80;;;;;;;14.68;80.40;98612.50;7384336;19;20011;-74
2022/10/25 08:28:11;;;;;;;5.97;2.03;;;;;;;14.68;80.98;98609.84;7385632;19;20086;-74
2022/10/25 08:30:39;;;;;;;3.33;2.25;;;;;;;14.83;80.15;98615.25;7384673;19;20031;-74
2022/10/25 08:33:06;;;;;;;5.03;2.10;;;;;;;14.88;80.23;98612.91;7389274;19;20002;-74
2022/10/25 08:35:37;;;;;;;6.65;2.30;;;;;;;14.93;79.64;98611.34;7387186;19;20050;-74
2022/10/25 08:38:04;;;;;;;4.88;1.92;;;;;;;14.97;80.25;98608.31;7380843;19;20665;-74
2022/10/25 08:40:50;;;;;;;8.05;2.42;;;;;;;15.04;80.03;98614.59;7385022;19;20497;-75
2022/10/25 08:43:47;;;;;;;4.80;1.75;;;;;;;15.06;78.97;98605.44;7385907;19;20019;-74
2022/10/25 08:46:28;;;;;;;6.30;1.90;;;;;;;15.03;79.41;98607.59;7384016;19;20010;-74
2022/10/25 08:49:15;;;;;;;12.45;2.30;;;;;;;14.97;78.59;98617.16;7387501;19;20011;-74
2022/10/25 08:51:45;;;;;;;11.77;2.38;;;;;;;14.98;79.28;98617.97;7385836;19;20023;-85
2022/10/25 08:54:36;;;;;;;3.67;1.70;;;;;;;14.91;79.87;98621.34;7387157;19;20051;-76
2022/10/25 08:57:23;;;;;;;5.47;1.95;;;;;;;14.99;80.37;98611.66;7378752;19;20010;-76
2022/10/25 08:59:55;;;;;;;5.55;1.70;;;;;;;15.02;80.00;98619.28;7383455;19;20011;-76
2022/10/25 09:02:56;;;;;;;4.13;2.10;;;;;;;15.13;80.04;98616.19;7385206;19;20039;-76
2022/10/25 09:05:41;;;;;;;7.20;2.00;;;;;;;15.13;79.39;98617.00;7392015;19;20027;-76
2022/10/25 09:08:14;;;;;;;6.05;1.90;;;;;;;15.18;79.87;98618.31;7394096;19;20490;-76
2022/10/25 09:10:50;;;;;;;8.90;1.95;;;;;;;15.22;80.45;98623.13;7392341;19;20043;-77
2022/10/25 09:13:25;;;;;;;8.43;2.30;;;;;;;15.39;80.48;98628.31;7388364;19;20015;-76
2022/10/25 09:15:53;;;;;;;6.32;2.03;;;;;;;15.44;79.64;98628.59;7389847;19;20044;-76
2022/10/25 09:18:30;;;;;;;7.38;1.98;;;;;;;15.45;79.24;98633.72;7392344;19;20053;-77
2022/10/25 09:20:58;;;;;;;6.00;2.15;;;;;;;15.50;79.21;98631.34;7389101;19;20533;-77
2022/10/25 09:23:28;;;;;;;6.65;2.58;;;;;;;15.53;78.90;98625.69;7392378;19;20042;-76
2022/10/25 09:26:15;;;;;;;13.68;2.10;;;;;;;15.57;78.80;98626.13;7394687;19;20066;-77
2022/10/25 09:29:04;;;;;;;4.00;2.13;;;;;;;15.55;79.09;98626.31;7389862;19;20011;-76
2022/10/25 09:31:36;;;;;;;4.60;1.50;;;;;;;15.60;79.29;98615.09;7384281;19;20059;-76
2022/10/25 09:34:04;;;;;;;;;;;;;;;15.67;78.97;98621.38;7389886;19;20010;-76
2022/10/25 09:36:46;;;;;;;4.13;1.95;;;;;;;15.66;78.25;98621.53;7388962;19;19915;-75
2022/10/25 09:39:19;;;;;;;6.07;1.85;;;;;;;15.72;78.61;98615.53;7390379;19;20498;-76
2022/10/25 09:41:52;;;;;;;3.22;1.80;;;;;;;15.74;78.29;98613.50;7392206;19;20091;-76
2022/10/25 09:44:33;;;;;;;6.30;2.38;;;;;;;15.79;78.15;98619.94;7388806;19;20015;-77
2022/10/25 09:47:11;;;;;;;5.20;1.90;;;;;;;15.80;78.77;98621.59;7388126;19;20432;-76
2022/10/25 09:49:47;;;;;;;8.05;1.88;;;;;;;15.87;78.71;98615.53;7390575;19;20745;-76
2022/10/25 09:52:23;;;;;;;3.72;1.88;;;;;;;15.86;78.88;98627.22;7391163;19;20018;-76
2022/10/25 09:55:08;;;;;;;3.90;1.55;;;;;;;15.94;78.56;98616.44;7390490;19;20468;-76
2022/10/25 09:57:35;;;;;;;6.43;1.80;;;;;;;15.94;78.57;98616.44;7391296;19;20511;-76
2022/10/25 10:00:03;;;;;;;4.47;1.85;;;;;;;15.99;78.68;98627.41;7390872;19;20509;-76
2022/10/25 10:02:38;;;;;;;3.72;1.83;;;;;;;16.13;78.65;98620.41;7390539;19;20039;-76
2022/10/25 10:05:05;;;;;;;9.43;2.05;;;;;;;16.11;78.36;98615.22;7389894;19;20038;-76
2022/10/25 10:07:36;;;;;;;7.13;1.70;;;;;;;16.10;78.13;98618.94;7388454;19;20054;-76
2022/10/25 10:10:06;;;;;;;9.77;1.77;;;;;;;16.15;78.04;98615.72;7390995;19;20359;-76
2022/10/25 10:12:56;;;;;;;4.82;1.50;;;;;;;16.19;77.51;98614.31;7391441;19;20014;-76
2022/10/25 10:15:30;;;;;;;5.18;1.92;;;;;;;16.26;77.31;98612.56;7390741;19;20026;-76
2022/10/25 10:18:23;;;;;;;4.72;1.50;;;;;;;16.38;77.61;98623.59;7387696;19;20038;-76
2022/10/25 10:21:08;;;;;;;4.72;1.23;;;;;;;16.33;76.74;98620.66;7388916;19;20022;-76
2022/10/25 10:23:42;;;;;;;6.20;1.45;;;;;;;16.44;75.68;98622.84;7390169;19;20058;-76
2022/10/25 10:26:18;;;;;;;6.20;1.67;;;;;;;16.52;75.12;98617.41;7391815;19;20038;-76
2022/10/25 10:28:48;;;;;;;9.68;1.67;;;;;;;16.48;75.14;98613.44;7389323;19;20007;-76
2022/10/25 10:31:15;;;;;;;3.83;1.20;;;;;;;16.56;75.24;98608.00;7389370;19;20343;-76
2022/10/25 10:33:49;;;;;;;7.47;1.80;;;;;;;16.59;74.84;98606.81;7388461;19;20007;-76
2022/10/25 10:36:28;;;;;;;7.18;1.95;;;;;;;16.63;75.39;98600.03;7386937;19;20022;-76
2022/10/25 10:39:21;;;;;;;6.28;1.80;;;;;;;16.68;76.00;98603.81;7386607;19;20015;-76
2022/10/25 10:41:59;;;;;;;7.18;1.23;;;;;;;16.56;75.33;98600.00;7391217;19;20021;-75
2022/10/25 10:44:26;;;;;;;9.98;1.48;;;;;;;16.52;75.10;98598.69;7389175;19;20346;-75
2022/10/25 10:46:54;;;;;;;7.15;1.67;;;;;;;16.72;76.15;98596.25;7390798;19;20035;-75
2022/10/25 10:49:32;;;;;;;6.85;1.50;;;;;;;16.81;75.34;98586.28;7391105;19;20406;-75
2022/10/25 10:52:01;;;;;;;5.68;1.50;;;;;;;16.92;76.23;98583.09;7384342;19;20031;-75
2022/10/25 10:54:31;;;;;;;5.00;1.88;;;;;;;16.86;73.60;98583.88;7383081;19;20371;-75
2022/10/25 10:57:05;;;;;;;7.60;1.75;;;;;;;16.93;74.56;98571.41;7382327;19;20046;-75
2022/10/25 10:59:39;;;;;;;6.07;1.50;;;;;;;17.10;73.77;98575.47;7389417;19;20011;-75
2022/10/25 11:02:21;;;;;;;6.75;1.10;;;;;;;17.14;73.88;98577.75;7389612;19;20352;-75
2022/10/25 11:04:50;;;;;;;3.83;1.20;;;;;;;17.23;72.91;98574.75;7392020;19;20021;-75
2022/10/25 11:07:25;;;;;;;7.50;1.40;;;;;;;17.36;73.37;98574.03;7389033;19;20018;-75
2022/10/25 11:09:52;;;;;;;4.93;1.58;;;;;;;17.40;73.18;98569.94;7386762;19;20039;-75
2022/10/25 11:12:21;;;;;;;15.00;1.88;;;;;;;17.49;73.05;98574.13;7384945;19;20014;-74
2022/10/25 11:14:47;;;;;;;8.73;2.03;;;;;;;17.53;72.21;98572.69;7390423;19;20019;-75
2022/10/25 11:17:16;;;;;;;4.90;1.52;;;;;;;17.81;72.15;98568.38;7388111;19;20384;-75
2022/10/25 11:20:32;;;;;;;4.57;1.40;;;;;;;17.90;70.22;98553.81;7386339;19;20023;-75
2022/10/25 11:23:37;;;;;;;7.20;1.52;;;;;;;18.13;70.27;98548.97;7385724;19;20031;-75
2022/10/25 11:26:22;;;;;;;4.75;1.40;;;;;;;18.19;69.91;98553.53;7383224;19;20426;-75
2022/10/25 11:29:07;;;;;;;6.45;1.73;;;;;;;18.29;71.12;98547.78;7386693;19;20030;-75
2022/10/25 11:32:08;;;;;;;9.32;1.52;;;;;;;18.48;70.49;98550.72;7385483;19;20015;-75
2022/10/25 11:34:49;;;;;;;5.20;1.23;;;;;;;18.52;69.84;98552.00;7385998;19;20022;-75
2022/10/25 11:37:20;;;;;;;3.97;1.15;;;;;;;18.49;68.91;98545.19;7382786;19;20014;-75
2022/10/25 11:40:04;;;;;;;7.00;1.35;;;;;;;18.57;68.48;98552.22;7380847;19;20505;-75
2022/10/25 11:42:49;;;;;;;2.55;1.08;;;;;;;18.57;69.93;98552.22;7383656;19;20501;-75
2022/10/25 11:45:47;;;;;;;8.32;1.33;;;;;;;18.60;67.48;98549.13;7383984;19;20018;-75
2022/10/25 11:48:27;;;;;;;6.20;1.45;;;;;;;18.72;68.81;98550.19;7386508;19;20040;-75
2022/10/25 11:51:12;;;;;;;6.70;1.35;;;;;;;18.80;70.43;98547.34;7384183;19;20010;-75
2022/10/25 11:53:51;;;;;;;5.05;0.82;;;;;;;18.66;65.53;98548.28;7387962;19;20481;-74
2022/10/25 11:56:38;;;;;;;5.28;1.35;;;;;;;18.89;67.79;98550.63;7384117;19;20011;-75